createdAt,value
2023-02-18T00:00:59.204Z,2.27
2023-02-18T00:03:30.022Z,2.30
2023-02-18T00:05:58.056Z,2.17
2023-02-18T00:08:25.834Z,3.00
2023-02-18T00:10:54.024Z,2.37
2023-02-18T00:13:21.738Z,1.43
2023-02-18T00:15:49.593Z,2.33
2023-02-18T00:18:17.310Z,2.17
2023-02-18T00:20:46.429Z,2.80
2023-02-18T00:23:14.144Z,2.90
2023-02-18T00:25:42.251Z,1.90
2023-02-18T00:28:10.012Z,3.10
2023-02-18T00:30:41.459Z,2.53
2023-02-18T00:33:09.252Z,1.90
2023-02-18T00:35:37.034Z,2.47
2023-02-18T00:38:06.139Z,1.63
2023-02-18T00:40:33.893Z,1.87
2023-02-18T00:43:01.618Z,2.20
2023-02-18T00:45:29.499Z,1.63
2023-02-18T00:47:57.301Z,2.80
2023-02-18T00:50:25.066Z,3.17
2023-02-18T00:52:52.843Z,2.50
2023-02-18T00:55:21.977Z,2.33
2023-02-18T00:57:49.737Z,3.20
2023-02-18T01:00:18.260Z,2.47
2023-02-18T01:02:45.988Z,1.63
2023-02-18T01:05:13.722Z,2.70
2023-02-18T01:07:41.465Z,1.93
2023-02-18T01:10:09.642Z,2.23
2023-02-18T01:12:38.850Z,1.87
2023-02-18T01:15:07.638Z,2.70
2023-02-18T01:17:35.483Z,2.90
2023-02-18T01:20:03.296Z,2.30
2023-02-18T01:22:31.480Z,2.80
2023-02-18T01:24:59.205Z,2.63
2023-02-18T01:27:26.973Z,2.43
2023-02-18T01:29:56.202Z,2.90
2023-02-18T01:32:24.021Z,3.20
2023-02-18T01:34:51.724Z,2.20
2023-02-18T01:37:19.483Z,2.63
2023-02-18T01:39:47.188Z,2.60
2023-02-18T01:42:20.555Z,2.43
2023-02-18T01:44:48.579Z,1.93
2023-02-18T01:47:18.700Z,2.27
2023-02-18T01:49:49.002Z,1.57
2023-02-18T01:52:19.250Z,3.13
2023-02-18T01:54:50.374Z,2.27
2023-02-18T01:57:21.718Z,2.93
2023-02-18T01:59:53.052Z,2.43
2023-02-18T02:02:23.882Z,2.57
2023-02-18T02:04:51.982Z,2.27
2023-02-18T02:07:21.652Z,2.37
2023-02-18T02:09:51.548Z,3.13
2023-02-18T02:12:34.123Z,1.90
2023-02-18T02:15:14.655Z,2.37
2023-02-18T02:17:50.500Z,2.37
2023-02-18T02:20:47.151Z,2.23
2023-02-18T02:23:42.543Z,2.37
2023-02-18T02:26:59.512Z,2.50
2023-02-18T02:29:54.736Z,2.20
2023-02-18T02:32:46.680Z,2.87
2023-02-18T02:35:23.093Z,2.17
2023-02-18T02:37:59.295Z,2.77
2023-02-18T02:40:34.531Z,2.37
2023-02-18T02:43:10.420Z,2.70
2023-02-18T02:45:49.178Z,2.93
2023-02-18T02:48:24.969Z,2.73
2023-02-18T02:51:03.394Z,2.07
2023-02-18T02:53:34.780Z,3.17
2023-02-18T02:56:02.532Z,3.43
2023-02-18T02:58:30.537Z,2.70
2023-02-18T03:01:13.528Z,2.23
2023-02-18T03:04:10.133Z,2.97
2023-02-18T03:06:51.013Z,3.00
2023-02-18T03:09:28.029Z,1.97
2023-02-18T03:12:04.139Z,2.60
2023-02-18T03:14:40.833Z,2.73
2023-02-18T03:17:16.649Z,2.73
2023-02-18T03:19:52.148Z,3.10
2023-02-18T03:22:24.603Z,2.40
2023-02-18T03:24:55.375Z,4.17
2023-02-18T03:27:25.991Z,2.33
2023-02-18T03:29:58.964Z,2.23
2023-02-18T03:32:29.625Z,3.40
2023-02-18T03:35:01.459Z,1.87
2023-02-18T03:37:31.730Z,2.73
2023-02-18T03:40:02.054Z,2.07
2023-02-18T03:42:30.397Z,2.90
2023-02-18T03:44:59.224Z,2.47
2023-02-18T03:47:27.015Z,2.30
2023-02-18T03:49:54.743Z,2.10
2023-02-18T03:52:23.877Z,1.90
2023-02-18T03:54:53.019Z,2.17
2023-02-18T03:57:20.819Z,2.37
2023-02-18T03:59:48.562Z,2.87
2023-02-18T04:02:16.319Z,2.33
2023-02-18T04:04:44.034Z,2.27
2023-02-18T04:07:11.772Z,2.57
2023-02-18T04:09:39.508Z,2.33
2023-02-18T04:12:08.796Z,2.47
2023-02-18T04:14:36.574Z,2.37
2023-02-18T04:17:04.621Z,2.83
2023-02-18T04:19:32.343Z,2.50
2023-02-18T04:22:00.124Z,2.00
2023-02-18T04:24:27.939Z,2.37
2023-02-18T04:26:55.650Z,2.57
2023-02-18T04:29:24.752Z,2.53
2023-02-18T04:31:52.493Z,2.17
2023-02-18T04:34:20.296Z,2.47
2023-02-18T04:36:48.069Z,2.17
2023-02-18T04:39:15.808Z,1.90
2023-02-18T04:41:43.505Z,2.37
2023-02-18T04:44:11.262Z,2.60
2023-02-18T04:46:40.380Z,2.67
2023-02-18T04:49:08.202Z,2.53
2023-02-18T04:51:37.623Z,3.00
2023-02-18T04:54:05.739Z,1.43
2023-02-18T04:56:33.511Z,2.20
2023-02-18T04:59:01.320Z,2.43
2023-02-18T05:01:29.083Z,2.77
2023-02-18T05:03:58.193Z,2.60
2023-02-18T05:06:25.977Z,2.57
2023-02-18T05:08:53.745Z,1.97
2023-02-18T05:11:21.561Z,2.00
2023-02-18T05:13:49.302Z,1.90
2023-02-18T05:16:17.322Z,2.33
2023-02-18T05:18:45.129Z,2.23
2023-02-18T05:21:14.287Z,2.37
2023-02-18T05:23:42.008Z,1.30
2023-02-18T05:26:10.108Z,2.37
2023-02-18T05:28:38.068Z,2.30
2023-02-18T05:31:06.364Z,1.40
2023-02-18T05:33:34.153Z,2.77
2023-02-18T05:36:01.994Z,1.67
2023-02-18T05:38:31.088Z,2.80
2023-02-18T05:40:58.835Z,1.90
2023-02-18T05:43:26.632Z,1.63
2023-02-18T05:45:54.423Z,2.30
2023-02-18T05:48:22.207Z,2.60
2023-02-18T05:50:53.856Z,2.10
2023-02-18T05:53:22.035Z,2.07
2023-02-18T05:55:51.116Z,2.20
2023-02-18T05:58:18.834Z,3.00
2023-02-18T06:00:46.539Z,3.70
2023-02-18T06:03:14.278Z,2.50
2023-02-18T06:05:42.026Z,2.40
2023-02-18T06:08:09.950Z,2.10
2023-02-18T06:10:37.679Z,3.63
2023-02-18T06:13:06.777Z,2.37
2023-02-18T06:15:34.556Z,1.67
2023-02-18T06:18:02.295Z,2.07
2023-02-18T06:20:30.024Z,2.47
2023-02-18T06:22:57.800Z,1.97
2023-02-18T06:25:25.680Z,2.33
2023-02-18T06:27:53.430Z,2.10
2023-02-18T06:30:23.714Z,2.47
2023-02-18T06:32:52.402Z,2.43
2023-02-18T06:35:20.120Z,2.93
2023-02-18T06:37:47.881Z,2.90
2023-02-18T06:40:15.910Z,2.00
2023-02-18T06:42:43.639Z,3.03
2023-02-18T06:45:11.527Z,2.40
2023-02-18T06:47:41.101Z,2.40
2023-02-18T06:50:10.268Z,1.93
2023-02-18T06:52:38.152Z,2.40
2023-02-18T06:55:06.546Z,1.33
2023-02-18T06:57:34.306Z,2.67
2023-02-18T07:00:02.724Z,2.77
2023-02-18T07:02:30.432Z,2.00
2023-02-18T07:04:59.679Z,3.30
2023-02-18T07:07:27.506Z,1.83
2023-02-18T07:09:55.225Z,1.80
2023-02-18T07:12:23.008Z,2.37
2023-02-18T07:14:50.774Z,2.97
2023-02-18T07:17:19.147Z,2.63
2023-02-18T07:19:46.846Z,2.00
2023-02-18T07:22:15.988Z,2.37
2023-02-18T07:24:43.902Z,2.53
2023-02-18T07:27:11.662Z,1.83
2023-02-18T07:29:39.406Z,1.00
2023-02-18T07:32:07.148Z,1.23
2023-02-18T07:34:34.872Z,1.50
2023-02-18T07:37:02.788Z,1.67
2023-02-18T07:39:31.909Z,0.57
2023-02-18T07:41:59.634Z,0.97
2023-02-18T07:44:27.957Z,1.97
2023-02-18T07:46:55.676Z,1.30
2023-02-18T07:49:24.050Z,1.10
2023-02-18T07:51:51.935Z,1.03
2023-02-18T07:54:19.777Z,1.10
2023-02-18T07:56:48.867Z,1.20
2023-02-18T07:59:16.703Z,1.40
2023-02-18T08:01:45.172Z,1.63
2023-02-18T08:04:13.405Z,1.07
2023-02-18T08:06:43.067Z,1.07
2023-02-18T08:09:11.133Z,0.83
2023-02-18T08:11:39.084Z,1.60
2023-02-18T08:14:08.538Z,1.23
2023-02-18T08:16:36.958Z,1.67
2023-02-18T08:19:05.309Z,1.17
2023-02-18T08:21:33.196Z,1.67
2023-02-18T08:24:00.948Z,1.23
2023-02-18T08:26:28.743Z,1.77
2023-02-18T08:28:56.517Z,1.80
2023-02-18T08:31:28.485Z,1.40
2023-02-18T08:33:57.728Z,1.40
2023-02-18T08:36:25.664Z,0.87
2023-02-18T08:38:53.456Z,1.80
2023-02-18T08:41:21.715Z,1.37
2023-02-18T08:43:49.617Z,1.77
2023-02-18T08:46:25.255Z,1.30
2023-02-18T08:49:03.066Z,1.27
2023-02-18T08:51:31.559Z,1.20
2023-02-18T08:53:59.494Z,0.93
2023-02-18T08:56:27.657Z,1.10
2023-02-18T08:58:55.385Z,1.67
2023-02-18T09:01:23.224Z,0.93
2023-02-18T09:03:51.028Z,1.17
2023-02-18T09:06:20.199Z,1.57
2023-02-18T09:08:47.979Z,1.40
2023-02-18T09:11:15.885Z,1.43
2023-02-18T09:13:43.635Z,1.40
2023-02-18T09:16:14.190Z,1.50
2023-02-18T09:18:42.506Z,1.10
2023-02-18T09:21:10.820Z,0.77
2023-02-18T09:23:40.579Z,1.23
2023-02-18T09:26:10.309Z,1.30
2023-02-18T09:28:38.378Z,1.20
2023-02-18T09:31:08.309Z,1.10
2023-02-18T09:33:37.759Z,1.63
2023-02-18T09:36:05.858Z,1.60
2023-02-18T09:38:33.895Z,1.20
2023-02-18T09:41:06.614Z,1.30
2023-02-18T09:43:37.881Z,1.30
2023-02-18T09:46:17.801Z,1.03
2023-02-18T09:48:47.834Z,1.83
2023-02-18T09:51:17.254Z,1.17
2023-02-18T09:53:46.641Z,1.60
2023-02-18T09:56:28.592Z,1.43
2023-02-18T09:58:59.237Z,1.57
2023-02-18T10:01:32.545Z,1.50
2023-02-18T10:04:04.701Z,1.77
2023-02-18T10:06:34.731Z,1.67
2023-02-18T10:09:05.749Z,1.43
2023-02-18T10:11:41.333Z,1.30
2023-02-18T10:14:13.553Z,2.07
2023-02-18T10:16:41.345Z,1.03
2023-02-18T10:19:22.201Z,1.00
2023-02-18T10:21:51.982Z,1.37
2023-02-18T10:24:29.978Z,0.90
2023-02-18T10:27:00.705Z,1.20
2023-02-18T10:29:29.355Z,1.10
2023-02-18T10:32:00.819Z,1.03
2023-02-18T10:34:42.293Z,0.83
2023-02-18T10:37:29.641Z,0.70
2023-02-18T10:40:07.651Z,0.90
2023-02-18T10:42:47.126Z,1.17
2023-02-18T10:45:25.092Z,0.90
2023-02-18T10:48:04.541Z,0.90
2023-02-18T10:50:38.150Z,1.00
2023-02-18T10:53:13.344Z,0.70
2023-02-18T10:55:43.192Z,1.00
2023-02-18T10:58:33.375Z,0.83
2023-02-18T11:01:04.966Z,1.00
2023-02-18T11:03:44.652Z,0.93
2023-02-18T11:06:23.141Z,1.33
2023-02-18T11:08:51.691Z,1.10
2023-02-18T11:11:25.061Z,1.20
2023-02-18T11:13:59.361Z,1.10
2023-02-18T11:16:39.230Z,1.10
2023-02-18T11:19:07.270Z,0.50
2023-02-18T11:21:37.569Z,0.87
2023-02-18T11:24:10.628Z,1.87
2023-02-18T11:26:40.081Z,1.50
2023-02-18T11:29:16.802Z,0.90
2023-02-18T11:31:47.202Z,0.90
2023-02-18T11:34:19.553Z,1.07
2023-02-18T11:36:48.249Z,0.80
2023-02-18T11:39:21.536Z,0.90
2023-02-18T11:41:55.642Z,1.20
2023-02-18T11:44:29.869Z,0.70
2023-02-18T11:47:03.331Z,0.70
2023-02-18T11:49:33.992Z,0.57
2023-02-18T11:52:07.444Z,1.30
2023-02-18T11:54:36.105Z,0.60
2023-02-18T11:57:06.068Z,0.53
2023-02-18T11:59:38.508Z,0.63
2023-02-18T12:02:28.972Z,0.53
2023-02-18T12:05:02.640Z,0.60
2023-02-18T12:07:36.473Z,0.30
2023-02-18T12:10:12.098Z,0.70
2023-02-18T12:12:47.300Z,0.70
2023-02-18T12:15:23.110Z,0.60
2023-02-18T12:18:10.980Z,0.63
2023-02-18T12:20:55.788Z,0.63
2023-02-18T12:23:31.776Z,1.13
2023-02-18T12:26:09.275Z,0.80
2023-02-18T12:28:53.168Z,0.70
2023-02-18T12:31:39.577Z,0.63
2023-02-18T12:34:20.024Z,0.80
2023-02-18T12:36:59.603Z,0.43
2023-02-18T12:39:39.045Z,0.50
2023-02-18T12:42:27.384Z,0.60
2023-02-18T12:45:14.264Z,0.93
2023-02-18T12:48:05.764Z,0.80
2023-02-18T12:51:06.416Z,1.00
2023-02-18T12:53:59.080Z,1.13
2023-02-18T12:56:48.864Z,1.17
2023-02-18T12:59:36.866Z,0.63
2023-02-18T13:02:19.321Z,1.17
2023-02-18T13:04:59.787Z,0.90
2023-02-18T13:07:49.312Z,0.87
2023-02-18T13:10:38.074Z,0.70
2023-02-18T13:13:12.305Z,0.90
2023-02-18T13:15:44.333Z,0.53
2023-02-18T13:18:17.306Z,0.63
2023-02-18T13:20:50.314Z,0.30
2023-02-18T13:23:20.648Z,0.60
2023-02-18T13:25:53.907Z,0.50
2023-02-18T13:28:31.687Z,0.53
2023-02-18T13:31:13.723Z,0.53
2023-02-18T13:33:48.315Z,0.30
2023-02-18T13:36:29.448Z,1.97
2023-02-18T13:39:04.089Z,5.33
2023-02-18T13:41:36.867Z,0.40
2023-02-18T13:44:10.429Z,0.63
2023-02-18T13:46:50.438Z,0.90
2023-02-18T13:49:22.588Z,1.03
2023-02-18T13:51:52.943Z,0.67
2023-02-18T13:54:25.978Z,0.57
2023-02-18T13:56:58.747Z,0.60
2023-02-18T13:59:34.563Z,0.60
2023-02-18T14:02:29.922Z,0.40
2023-02-18T14:04:58.830Z,0.57
2023-02-18T14:07:48.542Z,0.50
2023-02-18T14:10:33.412Z,0.50
2023-02-18T14:13:41.004Z,0.70
2023-02-18T14:16:10.416Z,0.60
2023-02-18T14:18:56.862Z,0.90
2023-02-18T14:21:38.605Z,0.43
2023-02-18T14:24:10.542Z,0.53
2023-02-18T14:26:44.117Z,0.63
2023-02-18T14:29:19.070Z,1.10
2023-02-18T14:31:54.623Z,1.00
2023-02-18T14:34:52.151Z,0.90
2023-02-18T14:38:05.359Z,0.63
2023-02-18T14:41:03.087Z,0.60
2023-02-18T14:44:03.347Z,0.90
2023-02-18T14:46:41.852Z,1.10
2023-02-18T14:49:35.644Z,1.20
2023-02-18T14:52:06.618Z,0.60
2023-02-18T14:54:34.553Z,0.80
2023-02-18T14:57:07.816Z,0.83
2023-02-18T14:59:38.859Z,0.70
2023-02-18T15:02:20.126Z,0.97
2023-02-18T15:04:48.064Z,1.00
2023-02-18T15:07:19.347Z,1.00
2023-02-18T15:09:48.691Z,0.73
2023-02-18T15:12:23.351Z,0.77
2023-02-18T15:14:54.576Z,0.80
2023-02-18T15:17:27.284Z,0.70
2023-02-18T15:19:57.890Z,0.63
2023-02-18T15:22:28.110Z,0.90
2023-02-18T15:24:57.003Z,0.67
2023-02-18T15:27:29.144Z,1.03
2023-02-18T15:29:59.272Z,0.37
2023-02-18T15:32:29.674Z,0.60
2023-02-18T15:35:01.655Z,1.13
2023-02-18T15:37:29.966Z,1.10
2023-02-18T15:39:57.972Z,1.00
2023-02-18T15:42:31.039Z,1.10
2023-02-18T15:45:03.286Z,0.90
2023-02-18T15:47:32.098Z,0.87
2023-02-18T15:50:03.209Z,1.10
2023-02-18T15:52:34.278Z,3.50
2023-02-18T15:55:05.041Z,0.90
2023-02-18T15:57:37.101Z,1.00
2023-02-18T16:00:14.242Z,1.17
2023-02-18T16:02:54.137Z,0.87
2023-02-18T16:05:26.723Z,0.80
2023-02-18T16:07:59.469Z,1.03
2023-02-18T16:10:43.967Z,0.90
2023-02-18T16:13:17.217Z,0.73
2023-02-18T16:15:47.506Z,0.70
2023-02-18T16:18:30.987Z,0.77
2023-02-18T16:21:02.086Z,0.87
2023-02-18T16:23:37.502Z,0.63
2023-02-18T16:26:30.942Z,0.60
2023-02-18T16:29:13.764Z,0.50
2023-02-18T16:31:42.393Z,0.77
2023-02-18T16:34:10.250Z,0.93
2023-02-18T16:36:58.130Z,0.67
2023-02-18T16:39:25.929Z,0.70
2023-02-18T16:41:54.079Z,1.10
2023-02-18T16:44:23.175Z,0.90
2023-02-18T16:46:50.993Z,1.20
2023-02-18T16:49:20.311Z,0.80
2023-02-18T16:51:50.233Z,0.60
2023-02-18T16:54:18.377Z,0.70
2023-02-18T16:56:46.229Z,0.57
2023-02-18T16:59:13.998Z,1.00
2023-02-18T17:01:46.220Z,0.80
2023-02-18T17:04:16.439Z,1.10
2023-02-18T17:06:45.252Z,0.97
2023-02-18T17:09:16.893Z,1.10
2023-02-18T17:11:45.976Z,1.10
2023-02-18T17:14:17.818Z,1.30
2023-02-18T17:16:47.238Z,1.30
2023-02-18T17:19:15.068Z,1.27
2023-02-18T17:21:43.285Z,1.60
2023-02-18T17:24:13.986Z,2.10
2023-02-18T17:26:41.985Z,1.97
2023-02-18T17:29:10.880Z,1.53
2023-02-18T17:31:44.444Z,1.53
2023-02-18T17:34:20.128Z,1.80
2023-02-18T17:36:48.986Z,1.23
2023-02-18T17:39:18.589Z,1.40
2023-02-18T17:41:46.637Z,1.87
2023-02-18T17:44:16.748Z,2.03
2023-02-18T17:46:44.906Z,2.37
2023-02-18T17:49:14.159Z,1.87
2023-02-18T17:51:41.896Z,2.23
2023-02-18T17:54:13.727Z,3.03
2023-02-18T17:56:41.779Z,2.73
2023-02-18T17:59:09.862Z,2.47
2023-02-18T18:01:37.931Z,3.13
2023-02-18T18:04:07.365Z,3.10
2023-02-18T18:06:36.486Z,3.30
2023-02-18T18:09:04.375Z,3.30
2023-02-18T18:11:32.881Z,2.90
2023-02-18T18:14:00.668Z,2.73
2023-02-18T18:16:28.633Z,3.10
2023-02-18T18:18:56.417Z,2.80
2023-02-18T18:21:29.119Z,2.97
2023-02-18T18:23:58.325Z,2.90
2023-02-18T18:26:26.099Z,2.63
2023-02-18T18:28:54.813Z,2.40
2023-02-18T18:31:22.679Z,2.37
2023-02-18T18:33:53.470Z,2.03
2023-02-18T18:36:24.071Z,2.43
2023-02-18T18:38:52.284Z,2.00
2023-02-18T18:41:23.625Z,2.10
2023-02-18T18:43:51.574Z,2.00
2023-02-18T18:46:19.435Z,1.40
2023-02-18T18:48:47.688Z,1.80
2023-02-18T18:51:17.040Z,1.90
2023-02-18T18:53:44.807Z,2.00
2023-02-18T18:56:13.961Z,1.60
2023-02-18T18:58:43.079Z,2.03
2023-02-18T19:01:16.858Z,1.50
2023-02-18T19:03:45.474Z,1.50
2023-02-18T19:06:14.710Z,2.30
2023-02-18T19:08:45.218Z,1.40
2023-02-18T19:11:13.614Z,2.83
2023-02-18T19:13:43.080Z,1.60
2023-02-18T19:16:17.458Z,1.40
2023-02-18T19:18:45.354Z,1.50
2023-02-18T19:21:13.257Z,1.60
2023-02-18T19:23:41.389Z,1.50
2023-02-18T19:26:09.919Z,1.40
2023-02-18T19:28:37.897Z,1.40
2023-02-18T19:31:11.064Z,1.70
2023-02-18T19:33:39.804Z,1.87
2023-02-18T19:36:09.693Z,2.30
2023-02-18T19:38:37.534Z,2.20
2023-02-18T19:41:10.083Z,2.10
2023-02-18T19:43:38.037Z,2.63
2023-02-18T19:46:11.560Z,2.53
2023-02-18T19:48:41.224Z,2.10
2023-02-18T19:51:14.515Z,3.10
2023-02-18T19:53:44.400Z,2.40
2023-02-18T19:56:12.080Z,2.30
2023-02-18T19:58:41.077Z,2.43
2023-02-18T20:01:13.886Z,1.93
2023-02-18T20:03:41.892Z,4.60
2023-02-18T20:06:16.335Z,2.73
2023-02-18T20:08:44.132Z,2.73
2023-02-18T20:11:12.250Z,2.67
2023-02-18T20:13:40.246Z,2.33
2023-02-18T20:16:08.838Z,2.40
2023-02-18T20:18:38.063Z,2.80
2023-02-18T20:21:06.381Z,2.33
2023-02-18T20:23:34.106Z,2.50
2023-02-18T20:26:07.329Z,2.50
2023-02-18T20:28:35.098Z,2.90
2023-02-18T20:31:07.147Z,2.87
2023-02-18T20:33:35.068Z,3.10
2023-02-18T20:36:07.003Z,2.90
2023-02-18T20:38:34.908Z,2.70
2023-02-18T20:41:05.046Z,2.70
2023-02-18T20:43:33.004Z,3.43
2023-02-18T20:46:04.045Z,3.27
2023-02-18T20:48:33.684Z,3.83
2023-02-18T20:51:05.978Z,3.67
2023-02-18T20:53:34.079Z,2.30
2023-02-18T20:56:02.091Z,2.77
2023-02-18T20:58:32.098Z,2.90
2023-02-18T21:01:03.436Z,3.27
2023-02-18T21:03:31.783Z,3.20
2023-02-18T21:06:01.741Z,3.33
2023-02-18T21:08:31.521Z,3.73
2023-02-18T21:11:03.621Z,3.17
2023-02-18T21:13:31.493Z,3.43
2023-02-18T21:15:59.341Z,4.23
2023-02-18T21:18:27.214Z,4.40
2023-02-18T21:20:55.072Z,4.07
2023-02-18T21:23:22.772Z,3.97
2023-02-18T21:25:51.949Z,3.40
2023-02-18T21:28:20.020Z,3.63
2023-02-18T21:30:49.682Z,3.90
2023-02-18T21:33:19.872Z,4.03
2023-02-18T21:35:50.010Z,3.50
2023-02-18T21:38:20.320Z,3.03
2023-02-18T21:40:48.501Z,3.40
2023-02-18T21:43:17.679Z,3.67
2023-02-18T21:45:46.676Z,3.47
2023-02-18T21:48:32.245Z,2.33
2023-02-18T21:51:02.670Z,3.43
2023-02-18T21:53:30.495Z,2.33
2023-02-18T21:56:03.588Z,3.57
2023-02-18T21:58:44.129Z,3.03
2023-02-18T22:01:12.397Z,2.80
2023-02-18T22:03:43.728Z,3.57
2023-02-18T22:06:11.641Z,2.60
2023-02-18T22:08:39.901Z,3.07
2023-02-18T22:11:07.837Z,3.20
2023-02-18T22:13:39.116Z,2.90
2023-02-18T22:16:08.951Z,2.70
2023-02-18T22:18:36.759Z,3.17
2023-02-18T22:21:08.234Z,2.40
2023-02-18T22:23:36.829Z,2.60
2023-02-18T22:26:06.191Z,2.80
2023-02-18T22:28:34.311Z,2.17
2023-02-18T22:31:07.403Z,1.97
2023-02-18T22:33:35.890Z,2.10
2023-02-18T22:36:03.742Z,2.53
2023-02-18T22:38:32.005Z,2.03
2023-02-18T22:41:04.493Z,1.80
2023-02-18T22:43:35.090Z,2.33
2023-02-18T22:46:05.661Z,2.10
2023-02-18T22:48:36.701Z,2.40
2023-02-18T22:51:09.741Z,2.23
2023-02-18T22:53:38.390Z,2.60
2023-02-18T22:56:08.560Z,2.57
2023-02-18T22:58:36.775Z,2.20
2023-02-18T23:01:07.011Z,3.00
2023-02-18T23:03:35.284Z,2.37
2023-02-18T23:06:04.094Z,1.67
2023-02-18T23:08:33.104Z,2.87
2023-02-18T23:11:02.169Z,2.30
2023-02-18T23:13:30.058Z,1.73
2023-02-18T23:16:03.734Z,2.63
2023-02-18T23:18:35.786Z,2.10
2023-02-18T23:21:22.126Z,2.40
2023-02-18T23:23:53.412Z,2.43
2023-02-18T23:26:23.737Z,1.93
2023-02-18T23:28:53.274Z,2.00
2023-02-18T23:31:23.485Z,2.07
2023-02-18T23:33:55.697Z,2.83
2023-02-18T23:36:28.277Z,2.33
2023-02-18T23:38:58.220Z,2.53
2023-02-18T23:41:26.496Z,2.03
2023-02-18T23:43:54.764Z,1.97
2023-02-18T23:46:25.066Z,2.30
2023-02-18T23:48:54.387Z,2.47
2023-02-18T23:51:23.894Z,1.93
2023-02-18T23:53:52.010Z,2.50
2023-02-18T23:56:21.464Z,2.20
2023-02-18T23:58:52.358Z,2.10
